createdAt,value
2018-05-10T00:08:04.617Z,25.7
2018-05-10T00:18:03.758Z,25.6
2018-05-10T00:28:03.167Z,25.6
2018-05-10T00:38:02.292Z,25.6
2018-05-10T00:48:01.422Z,25.6
2018-05-10T00:58:01.253Z,25.6
2018-05-10T01:07:59.975Z,25.6
2018-05-10T01:17:59.154Z,25.6
2018-05-10T01:27:58.400Z,25.6
2018-05-10T01:37:57.533Z,25.6
2018-05-10T01:47:56.996Z,25.6
2018-05-10T01:57:56.345Z,25.6
2018-05-10T02:07:55.169Z,25.6
2018-05-10T02:17:54.769Z,25.6
2018-05-10T02:27:53.623Z,25.6
2018-05-10T02:37:52.813Z,25.6
2018-05-10T02:47:52.372Z,25.6
2018-05-10T02:57:51.267Z,25.6
2018-05-10T03:07:50.720Z,25.6
2018-05-10T03:17:49.817Z,25.6
2018-05-10T03:27:48.980Z,25.6
2018-05-10T03:37:48.262Z,25.6
2018-05-10T03:47:47.287Z,25.6
2018-05-10T03:57:46.533Z,25.5
2018-05-10T04:07:45.752Z,25.5
2018-05-10T04:17:44.992Z,25.5
2018-05-10T04:27:44.191Z,25.5
2018-05-10T04:37:43.643Z,25.5
2018-05-10T04:47:42.610Z,25.5
2018-05-10T04:57:41.830Z,25.5
2018-05-10T05:07:41.165Z,25.5
2018-05-10T05:17:40.313Z,25.5
2018-05-10T05:27:39.670Z,25.5
2018-05-10T05:37:39.087Z,25.5
2018-05-10T05:47:38.205Z,25.4
2018-05-10T05:57:37.233Z,25.4
2018-05-10T06:07:36.648Z,25.4
2018-05-10T06:17:35.733Z,25.4
2018-05-10T06:27:34.822Z,25.4
2018-05-10T06:37:33.997Z,25.4
2018-05-10T06:47:33.325Z,25.4
2018-05-10T06:57:32.563Z,25.3
2018-05-10T07:07:32.145Z,25.3
2018-05-10T07:17:30.844Z,25.4
2018-05-10T07:27:30.133Z,25.4
2018-05-10T07:37:29.303Z,25.4
2018-05-10T07:47:29.548Z,25.4
2018-05-10T07:57:27.977Z,25.4
2018-05-10T08:07:27.353Z,25.4
2018-05-10T08:17:26.602Z,25.4
2018-05-10T08:27:25.386Z,25.4
2018-05-10T08:37:24.876Z,25.3
2018-05-10T08:47:24.534Z,25.3
2018-05-10T08:57:23.402Z,25.3
2018-05-10T09:07:22.954Z,25.3
2018-05-10T09:17:21.456Z,25.3
2018-05-10T09:27:20.791Z,25.3
2018-05-10T09:37:20.350Z,25.3
2018-05-10T09:47:19.435Z,25.3
2018-05-10T09:57:18.524Z,25.3
2018-05-10T10:07:17.577Z,25.3
2018-05-10T10:17:16.801Z,25.3
2018-05-10T10:27:16.503Z,25.3
2018-05-10T10:37:15.215Z,25.3
2018-05-10T10:47:14.636Z,25.3
2018-05-10T10:57:13.674Z,25.3
2018-05-10T11:07:12.877Z,25.3
2018-05-10T11:17:12.519Z,25.3
2018-05-10T11:27:11.452Z,25.3
2018-05-10T11:37:10.694Z,25.4
2018-05-10T11:47:09.796Z,25.4
2018-05-10T11:57:09.034Z,25.4
2018-05-10T12:07:08.289Z,25.4
2018-05-10T12:17:08.128Z,25.4
2018-05-10T12:27:06.649Z,25.4
2018-05-10T12:37:05.926Z,25.4
2018-05-10T12:47:05.072Z,25.4
2018-05-10T12:57:04.291Z,25.4
2018-05-10T13:07:03.490Z,25.4
2018-05-10T13:17:03.014Z,25.4
2018-05-10T13:27:02.334Z,25.3
2018-05-10T13:37:01.205Z,25.3
2018-05-10T13:47:00.538Z,25.3
2018-05-10T13:56:59.665Z,25.3
2018-05-10T14:06:59.111Z,25.3
2018-05-10T14:16:58.051Z,25.3
2018-05-10T14:26:57.358Z,25.3
2018-05-10T14:36:56.522Z,25.3
2018-05-10T14:46:55.751Z,25.3
2018-05-10T14:56:54.965Z,25.4
2018-05-10T15:06:54.197Z,25.1
2018-05-10T15:16:53.480Z,24.4
2018-05-10T15:26:52.701Z,23.7
2018-05-10T15:36:52.144Z,22.9
2018-05-10T15:46:51.584Z,23.2
2018-05-10T15:56:50.646Z,23.6
2018-05-10T16:06:49.789Z,23.8
2018-05-10T16:16:48.658Z,24.1
2018-05-10T16:26:47.908Z,24.2
2018-05-10T16:36:47.376Z,24.3
2018-05-10T16:46:46.686Z,24.4
2018-05-10T16:56:45.676Z,24.4
2018-05-10T17:06:45.199Z,24.5
2018-05-10T17:16:44.175Z,24.6
2018-05-10T17:26:43.203Z,24.6
2018-05-10T17:36:42.815Z,24.6
2018-05-10T17:46:41.667Z,24.6
2018-05-10T17:56:41.295Z,24.7
2018-05-10T18:06:40.525Z,24.7
2018-05-10T18:16:39.303Z,24.8
2018-05-10T18:26:38.555Z,24.9
2018-05-10T18:36:38.402Z,24.9
2018-05-10T18:46:37.403Z,24.9
2018-05-10T18:56:36.670Z,25
2018-05-10T19:06:35.449Z,25.1
2018-05-10T19:16:34.658Z,25.1
2018-05-10T19:26:34.110Z,25.1
2018-05-10T19:36:33.259Z,25.1
2018-05-10T19:46:32.399Z,25.2
2018-05-10T19:56:31.534Z,25.2
2018-05-10T20:06:30.890Z,25.2
2018-05-10T20:16:30.310Z,25.3
2018-05-10T20:26:29.259Z,25.3
2018-05-10T20:36:29.112Z,25.3
2018-05-10T20:46:27.614Z,25.3
2018-05-10T20:56:27.137Z,25.3
2018-05-10T21:06:26.472Z,25.2
2018-05-10T21:16:25.556Z,25.2
2018-05-10T21:26:24.617Z,25.2
2018-05-10T21:36:23.704Z,25.3
2018-05-10T21:46:22.970Z,25.3
2018-05-10T21:56:22.131Z,25.3
2018-05-10T22:06:21.809Z,25.3
2018-05-10T22:16:20.679Z,25.3
2018-05-10T22:26:19.951Z,25.3
2018-05-10T22:36:19.142Z,25.3
2018-05-10T22:46:18.795Z,25.3
2018-05-10T22:56:17.491Z,25.3
2018-05-10T23:06:16.840Z,25.3
2018-05-10T23:16:16.018Z,25.3
2018-05-10T23:26:15.127Z,25.3
2018-05-10T23:36:14.300Z,25.3
2018-05-10T23:46:13.613Z,25.3
2018-05-10T23:56:13.150Z,25.3
